createdAt,value
2016-07-04T00:00:31.554Z,0
2016-07-04T00:01:31.554Z,0
2016-07-04T00:02:31.585Z,0
2016-07-04T00:03:31.612Z,0
2016-07-04T00:04:31.630Z,0
2016-07-04T00:05:31.637Z,0
2016-07-04T00:06:31.664Z,0
2016-07-04T00:07:31.682Z,0
2016-07-04T00:08:31.704Z,0
2016-07-04T00:09:31.722Z,0
2016-07-04T00:10:31.740Z,0
2016-07-04T00:11:31.744Z,0
2016-07-04T00:12:31.778Z,0
2016-07-04T00:13:31.805Z,0
2016-07-04T00:14:31.823Z,0
2016-07-04T00:15:31.839Z,0
2016-07-04T00:16:31.855Z,0
2016-07-04T00:17:31.868Z,0
2016-07-04T00:18:31.880Z,0
2016-07-04T00:19:31.907Z,0
2016-07-04T00:20:31.924Z,0
2016-07-04T00:21:31.951Z,0
2016-07-04T00:22:31.950Z,0
2016-07-04T00:23:31.958Z,0
2016-07-04T00:24:31.995Z,0
2016-07-04T00:25:32.008Z,0
2016-07-04T00:26:32.025Z,0
2016-07-04T00:27:32.050Z,0
2016-07-04T00:28:32.068Z,0
2016-07-04T00:29:32.093Z,0
2016-07-04T00:30:32.093Z,0
2016-07-04T00:31:32.123Z,0
2016-07-04T00:32:32.139Z,0
2016-07-04T00:33:32.166Z,0
2016-07-04T00:34:32.167Z,0
2016-07-04T00:35:32.204Z,0
2016-07-04T00:36:32.213Z,0
2016-07-04T00:37:32.246Z,0
2016-07-04T00:38:32.250Z,0
2016-07-04T00:39:32.267Z,0
2016-07-04T00:40:32.284Z,0
2016-07-04T00:41:32.312Z,0
2016-07-04T00:42:32.311Z,0
2016-07-04T00:43:32.346Z,0
2016-07-04T00:44:32.356Z,0
2016-07-04T00:45:32.384Z,0
2016-07-04T00:46:32.388Z,0
2016-07-04T00:47:32.411Z,0
2016-07-04T00:48:32.437Z,0
2016-07-04T00:49:32.445Z,0
2016-07-04T00:50:32.460Z,0
2016-07-04T00:51:32.494Z,0
2016-07-04T00:52:32.497Z,0
2016-07-04T00:53:32.514Z,0
2016-07-04T00:54:32.532Z,0
2016-07-04T00:55:32.555Z,0
2016-07-04T00:56:32.575Z,0
2016-07-04T00:57:32.598Z,0
2016-07-04T00:58:32.618Z,0
2016-07-04T00:59:32.630Z,0
2016-07-04T01:00:32.642Z,0
2016-07-04T01:01:32.662Z,0
2016-07-04T01:02:32.690Z,0
2016-07-04T01:03:32.702Z,0
2016-07-04T01:04:32.713Z,0
2016-07-04T01:05:32.742Z,0
2016-07-04T01:06:32.749Z,0
2016-07-04T01:07:33.061Z,0
2016-07-04T01:08:32.951Z,0
2016-07-04T01:09:32.818Z,0
2016-07-04T01:10:32.828Z,0
2016-07-04T01:11:32.843Z,0
2016-07-04T01:12:32.870Z,0
2016-07-04T01:13:32.884Z,0
2016-07-04T01:14:32.900Z,0
2016-07-04T01:15:32.906Z,0
2016-07-04T01:16:32.935Z,0
2016-07-04T01:17:32.955Z,0
2016-07-04T01:18:32.961Z,0
2016-07-04T01:19:32.989Z,0
2016-07-04T01:20:33.005Z,0
2016-07-04T01:21:33.039Z,0
2016-07-04T01:22:33.033Z,0
2016-07-04T01:23:33.067Z,0
2016-07-04T01:24:33.069Z,0
2016-07-04T01:25:33.106Z,0
2016-07-04T01:26:33.111Z,0
2016-07-04T01:27:33.143Z,0
2016-07-04T01:28:33.155Z,0
2016-07-04T01:29:33.176Z,0
2016-07-04T01:30:33.185Z,0
2016-07-04T01:31:33.215Z,0
2016-07-04T01:32:33.226Z,0
2016-07-04T01:33:33.250Z,0
2016-07-04T01:34:33.253Z,0
2016-07-04T01:35:33.280Z,0
2016-07-04T01:36:33.293Z,0
2016-07-04T01:37:33.322Z,0
2016-07-04T01:38:33.334Z,0
2016-07-04T01:39:33.343Z,0
2016-07-04T01:40:33.361Z,0
2016-07-04T01:41:33.384Z,0
2016-07-04T01:42:33.390Z,0
2016-07-04T01:43:33.413Z,0
2016-07-04T01:44:33.443Z,0
2016-07-04T01:45:33.454Z,0
2016-07-04T01:46:33.476Z,0
2016-07-04T01:47:33.489Z,0
2016-07-04T01:48:33.510Z,0
2016-07-04T01:49:33.519Z,0
2016-07-04T01:50:33.542Z,0
2016-07-04T01:51:33.564Z,0
2016-07-04T01:52:33.582Z,0
2016-07-04T01:53:33.596Z,0
2016-07-04T01:54:33.613Z,0
2016-07-04T01:55:33.636Z,0
2016-07-04T01:56:33.658Z,0
2016-07-04T01:57:33.670Z,0
2016-07-04T01:58:33.679Z,0
2016-07-04T01:59:33.692Z,0
2016-07-04T02:00:33.742Z,0
2016-07-04T02:01:33.744Z,0
2016-07-04T02:02:33.756Z,0
2016-07-04T02:03:33.762Z,0
2016-07-04T02:04:33.799Z,0
2016-07-04T02:05:33.821Z,0
2016-07-04T02:06:33.837Z,0
2016-07-04T02:07:33.850Z,0
2016-07-04T02:08:33.993Z,0
2016-07-04T02:09:34.217Z,0
2016-07-04T02:10:34.123Z,0
2016-07-04T02:11:34.204Z,0
2016-07-04T02:12:33.939Z,0
2016-07-04T02:13:34.261Z,0
2016-07-04T02:14:33.987Z,0
2016-07-04T02:15:34.233Z,0
2016-07-04T02:16:34.224Z,0
2016-07-04T02:17:34.043Z,0
2016-07-04T02:18:34.058Z,0
2016-07-04T02:19:34.071Z,0
2016-07-04T02:20:34.095Z,0
2016-07-04T02:21:34.125Z,0
2016-07-04T02:22:34.123Z,0
2016-07-04T02:23:34.151Z,0
2016-07-04T02:24:34.160Z,0
2016-07-04T02:25:34.175Z,0
2016-07-04T02:26:34.198Z,0
2016-07-04T02:27:34.221Z,0
2016-07-04T02:28:34.243Z,0
2016-07-04T02:29:34.256Z,0
2016-07-04T02:30:34.266Z,0
2016-07-04T02:31:34.305Z,0
2016-07-04T02:32:34.304Z,0
2016-07-04T02:33:34.350Z,0
2016-07-04T02:34:34.346Z,4
2016-07-04T02:35:34.375Z,4
2016-07-04T02:36:34.380Z,0
2016-07-04T02:37:34.401Z,0
2016-07-04T02:38:34.409Z,0
2016-07-04T02:39:34.439Z,4
2016-07-04T02:40:34.439Z,4
2016-07-04T02:41:34.465Z,4
2016-07-04T02:42:34.479Z,4
2016-07-04T02:43:34.507Z,4
2016-07-04T02:44:34.529Z,4
2016-07-04T02:45:34.533Z,8
2016-07-04T02:46:34.548Z,8
2016-07-04T02:47:34.576Z,8
2016-07-04T02:48:34.580Z,12
2016-07-04T02:49:34.614Z,12
2016-07-04T02:50:34.614Z,12
2016-07-04T02:51:34.648Z,12
2016-07-04T02:52:34.660Z,16
2016-07-04T02:53:34.690Z,16
2016-07-04T02:54:34.695Z,20
2016-07-04T02:55:34.716Z,20
2016-07-04T02:56:34.733Z,24
2016-07-04T02:57:34.760Z,28
2016-07-04T02:58:34.772Z,32
2016-07-04T02:59:34.805Z,36
2016-07-04T03:00:34.805Z,40
2016-07-04T03:01:34.809Z,44
2016-07-04T03:02:34.848Z,52
2016-07-04T03:03:34.860Z,60
2016-07-04T03:04:34.871Z,68
2016-07-04T03:05:34.903Z,76
2016-07-04T03:06:34.908Z,84
2016-07-04T03:07:34.964Z,92
2016-07-04T03:08:34.970Z,104
2016-07-04T03:09:34.985Z,112
2016-07-04T03:10:34.993Z,120
2016-07-04T03:11:35.012Z,136
2016-07-04T03:12:35.015Z,144
2016-07-04T03:13:35.084Z,160
2016-07-04T03:14:35.060Z,172
2016-07-04T03:15:35.105Z,192
2016-07-04T03:16:35.136Z,204
2016-07-04T03:17:35.148Z,220
2016-07-04T03:18:35.174Z,236
2016-07-04T03:19:35.166Z,252
2016-07-04T03:20:35.181Z,268
2016-07-04T03:21:35.164Z,288
2016-07-04T03:22:35.186Z,304
2016-07-04T03:23:35.214Z,328
2016-07-04T03:24:35.218Z,348
2016-07-04T03:25:35.253Z,372
2016-07-04T03:26:35.273Z,392
2016-07-04T03:27:35.284Z,416
2016-07-04T03:28:35.308Z,440
2016-07-04T03:29:35.330Z,468
2016-07-04T03:30:35.333Z,492
2016-07-04T03:31:35.366Z,520
2016-07-04T03:32:35.390Z,544
2016-07-04T03:33:35.395Z,568
2016-07-04T03:34:35.408Z,596
2016-07-04T03:35:35.418Z,620
2016-07-04T03:36:35.454Z,648
2016-07-04T03:37:35.476Z,672
2016-07-04T03:38:35.477Z,700
2016-07-04T03:39:35.509Z,720
2016-07-04T03:40:35.516Z,744
2016-07-04T03:41:35.532Z,772
2016-07-04T03:42:35.560Z,796
2016-07-04T03:43:35.572Z,820
2016-07-04T03:44:35.567Z,844
2016-07-04T03:45:35.603Z,876
2016-07-04T03:46:35.619Z,908
2016-07-04T03:47:35.696Z,944
2016-07-04T03:48:35.658Z,984
2016-07-04T03:49:35.702Z,1024
2016-07-04T03:50:35.696Z,1068
2016-07-04T03:51:35.820Z,1116
2016-07-04T03:52:35.732Z,1164
2016-07-04T03:53:35.821Z,1212
2016-07-04T03:54:35.768Z,1260
2016-07-04T03:55:35.815Z,1312
2016-07-04T03:56:35.799Z,1376
2016-07-04T03:57:35.855Z,1464
2016-07-04T03:58:35.864Z,1504
2016-07-04T03:59:35.892Z,1644
2016-07-04T04:00:35.877Z,1740
2016-07-04T04:01:35.911Z,1844
2016-07-04T04:02:35.919Z,1916
2016-07-04T04:03:35.971Z,1928
2016-07-04T04:04:35.950Z,1920
2016-07-04T04:05:35.982Z,1884
2016-07-04T04:06:35.985Z,1904
2016-07-04T04:07:36.000Z,2012
2016-07-04T04:08:36.023Z,2196
2016-07-04T04:09:36.042Z,2328
2016-07-04T04:10:36.050Z,2464
2016-07-04T04:11:36.068Z,2544
2016-07-04T04:12:36.096Z,2644
2016-07-04T04:13:36.113Z,2704
2016-07-04T04:14:36.119Z,2780
2016-07-04T04:15:36.151Z,2812
2016-07-04T04:16:36.151Z,2900
2016-07-04T04:17:36.187Z,2964
2016-07-04T04:18:36.201Z,3048
2016-07-04T04:19:36.231Z,3092
2016-07-04T04:20:36.248Z,3096
2016-07-04T04:21:36.261Z,3100
2016-07-04T04:22:36.278Z,3148
2016-07-04T04:23:36.291Z,3236
2016-07-04T04:24:36.318Z,3288
2016-07-04T04:25:36.332Z,3296
2016-07-04T04:26:36.361Z,3392
2016-07-04T04:27:36.364Z,3576
2016-07-04T04:28:36.388Z,3696
2016-07-04T04:29:36.412Z,3760
2016-07-04T04:30:36.411Z,3788
2016-07-04T04:31:36.450Z,3760
2016-07-04T04:32:36.453Z,3668
2016-07-04T04:33:37.137Z,2748
2016-07-04T04:34:36.490Z,2776
2016-07-04T04:35:36.522Z,2868
2016-07-04T04:36:36.532Z,2976
2016-07-04T04:37:36.546Z,3156
2016-07-04T04:38:36.569Z,3432
2016-07-04T04:39:36.596Z,4116
2016-07-04T04:40:36.609Z,4408
2016-07-04T04:41:36.633Z,3604
2016-07-04T04:42:36.629Z,3616
2016-07-04T04:43:36.654Z,3660
2016-07-04T04:44:36.674Z,3800
2016-07-04T04:45:36.711Z,3908
2016-07-04T04:46:36.719Z,4772
2016-07-04T04:47:36.738Z,4292
2016-07-04T04:48:36.756Z,4416
2016-07-04T04:49:36.782Z,4524
2016-07-04T04:50:36.792Z,4844
2016-07-04T04:51:36.826Z,4448
2016-07-04T04:52:36.828Z,3724
2016-07-04T04:53:36.849Z,3624
2016-07-04T04:54:36.885Z,3628
2016-07-04T04:55:36.900Z,3668
2016-07-04T04:56:36.917Z,3644
2016-07-04T04:57:36.930Z,3616
2016-07-04T04:58:36.947Z,3568
2016-07-04T04:59:36.983Z,3508
2016-07-04T05:00:36.989Z,3468
2016-07-04T05:01:37.015Z,3436
2016-07-04T05:02:37.027Z,3436
2016-07-04T05:03:37.055Z,3432
2016-07-04T05:04:37.056Z,3460
2016-07-04T05:05:37.098Z,3444
2016-07-04T05:06:37.107Z,3448
2016-07-04T05:07:37.134Z,3448
2016-07-04T05:08:37.150Z,3452
2016-07-04T05:09:37.158Z,3456
2016-07-04T05:10:37.181Z,3452
2016-07-04T05:11:37.199Z,3444
2016-07-04T05:12:37.229Z,3436
2016-07-04T05:13:37.239Z,3444
2016-07-04T05:14:37.258Z,3464
2016-07-04T05:15:37.276Z,3476
2016-07-04T05:16:37.299Z,3516
2016-07-04T05:17:37.315Z,3484
2016-07-04T05:18:37.334Z,3440
2016-07-04T05:19:37.366Z,3412
2016-07-04T05:20:37.369Z,3480
2016-07-04T05:21:37.397Z,3496
2016-07-04T05:22:37.407Z,3492
2016-07-04T05:23:37.468Z,3516
2016-07-04T05:24:37.492Z,3544
2016-07-04T05:25:37.518Z,3556
2016-07-04T05:26:37.531Z,3548
2016-07-04T05:27:37.551Z,3532
2016-07-04T05:28:37.555Z,3524
2016-07-04T05:29:37.554Z,3536
2016-07-04T05:30:37.563Z,3560
2016-07-04T05:31:37.587Z,3564
2016-07-04T05:32:37.602Z,3580
2016-07-04T05:33:37.630Z,3592
2016-07-04T05:34:37.637Z,3600
2016-07-04T05:35:37.665Z,3616
2016-07-04T05:36:38.521Z,3612
2016-07-04T05:37:38.692Z,3620
2016-07-04T05:38:41.053Z,3620
2016-07-04T05:39:38.168Z,3636
2016-07-04T05:40:37.743Z,3656
2016-07-04T05:41:37.763Z,3688
2016-07-04T05:42:37.941Z,3720
2016-07-04T05:43:37.836Z,3736
2016-07-04T05:44:37.831Z,3744
2016-07-04T05:45:37.872Z,3748
2016-07-04T05:46:37.854Z,3764
2016-07-04T05:47:38.686Z,3796
2016-07-04T05:48:37.897Z,3832
2016-07-04T05:49:37.959Z,3880
2016-07-04T05:50:38.056Z,3928
2016-07-04T05:51:38.163Z,3972
2016-07-04T05:52:37.993Z,4012
2016-07-04T05:53:38.182Z,4044
2016-07-04T05:54:38.015Z,4064
2016-07-04T05:55:38.051Z,4112
2016-07-04T05:56:38.284Z,4212
2016-07-04T05:57:38.159Z,4288
2016-07-04T05:58:38.113Z,4356
2016-07-04T05:59:38.120Z,4408
2016-07-04T06:00:38.152Z,4460
2016-07-04T06:01:38.172Z,4508
2016-07-04T06:02:38.192Z,4536
2016-07-04T06:03:38.199Z,4568
2016-07-04T06:04:38.223Z,4616
2016-07-04T06:05:38.314Z,4676
2016-07-04T06:06:38.271Z,4748
2016-07-04T06:07:38.275Z,4836
2016-07-04T06:08:38.312Z,4936
2016-07-04T06:09:38.317Z,5044
2016-07-04T06:10:38.345Z,5152
2016-07-04T06:11:43.736Z,5272
2016-07-04T06:12:38.366Z,5360
2016-07-04T06:13:38.401Z,5448
2016-07-04T06:14:38.449Z,5560
2016-07-04T06:15:38.440Z,5648
2016-07-04T06:16:38.456Z,5736
2016-07-04T06:17:38.484Z,5812
2016-07-04T06:18:38.496Z,5892
2016-07-04T06:19:38.646Z,6004
2016-07-04T06:20:38.538Z,6096
2016-07-04T06:21:38.564Z,6228
2016-07-04T06:22:39.247Z,6344
2016-07-04T06:23:38.620Z,6440
2016-07-04T06:24:38.623Z,6532
2016-07-04T06:25:38.651Z,6652
2016-07-04T06:26:38.663Z,6972
2016-07-04T06:27:38.686Z,6872
2016-07-04T06:28:38.707Z,6844
2016-07-04T06:29:39.626Z,6860
2016-07-04T06:30:38.879Z,6924
2016-07-04T06:31:39.467Z,6976
2016-07-04T06:32:39.014Z,6884
2016-07-04T06:33:38.819Z,6884
2016-07-04T06:34:38.868Z,6952
2016-07-04T06:35:38.948Z,7056
2016-07-04T06:36:38.860Z,7092
2016-07-04T06:37:39.101Z,7332
2016-07-04T06:38:38.963Z,7224
2016-07-04T06:39:38.982Z,7488
2016-07-04T06:40:39.572Z,8020
2016-07-04T06:41:38.999Z,9836
2016-07-04T06:42:39.002Z,8436
2016-07-04T06:43:39.012Z,7416
2016-07-04T06:44:39.024Z,7412
2016-07-04T06:45:39.052Z,7528
2016-07-04T06:46:39.063Z,7720
2016-07-04T06:47:39.159Z,10172
2016-07-04T06:48:39.150Z,7504
2016-07-04T06:49:39.138Z,7376
2016-07-04T06:50:39.161Z,7376
2016-07-04T06:51:39.174Z,7400
2016-07-04T06:52:39.186Z,7964
2016-07-04T06:53:39.222Z,7696
2016-07-04T06:54:39.365Z,7608
2016-07-04T06:55:39.271Z,9768
2016-07-04T06:56:39.293Z,7820
2016-07-04T06:57:39.303Z,7508
2016-07-04T06:58:39.335Z,8756
2016-07-04T06:59:39.345Z,7428
2016-07-04T07:00:39.422Z,9936
2016-07-04T07:01:39.392Z,7120
2016-07-04T07:02:39.412Z,7084
2016-07-04T07:03:39.461Z,7180
2016-07-04T07:04:39.459Z,9016
2016-07-04T07:05:39.484Z,7552
2016-07-04T07:06:39.516Z,8812
2016-07-04T07:07:39.528Z,9400
2016-07-04T07:08:39.569Z,7860
2016-07-04T07:09:39.609Z,6668
2016-07-04T07:10:39.616Z,7096
2016-07-04T07:11:39.659Z,7520
2016-07-04T07:12:39.686Z,7624
2016-07-04T07:13:39.681Z,6804
2016-07-04T07:14:39.677Z,6132
2016-07-04T07:15:39.706Z,6780
2016-07-04T07:16:40.058Z,7048
2016-07-04T07:17:39.741Z,7076
2016-07-04T07:18:39.783Z,6232
2016-07-04T07:19:39.783Z,5924
2016-07-04T07:20:39.811Z,6068
2016-07-04T07:21:39.833Z,8052
2016-07-04T07:22:39.854Z,6364
2016-07-04T07:23:39.869Z,8328
2016-07-04T07:24:39.903Z,6524
2016-07-04T07:25:39.913Z,5972
2016-07-04T07:26:39.938Z,8144
2016-07-04T07:27:40.008Z,8152
2016-07-04T07:28:39.978Z,8072
2016-07-04T07:29:40.085Z,8172
2016-07-04T07:30:40.018Z,6984
2016-07-04T07:31:40.088Z,6312
2016-07-04T07:32:40.097Z,6852
2016-07-04T07:33:40.120Z,5756
2016-07-04T07:34:40.118Z,6496
2016-07-04T07:35:40.174Z,6964
2016-07-04T07:36:40.171Z,7444
2016-07-04T07:37:41.015Z,6548
2016-07-04T07:38:40.210Z,7952
2016-07-04T07:39:40.225Z,7464
2016-07-04T07:40:40.231Z,8308
2016-07-04T07:41:40.249Z,8328
2016-07-04T07:42:40.286Z,8424
2016-07-04T07:43:40.299Z,8384
2016-07-04T07:44:40.341Z,7272
2016-07-04T07:45:40.338Z,7560
2016-07-04T07:46:40.364Z,7076
2016-07-04T07:47:40.423Z,6784
2016-07-04T07:48:40.424Z,7588
2016-07-04T07:49:40.420Z,8196
2016-07-04T07:50:40.463Z,8420
2016-07-04T07:51:40.736Z,8540
2016-07-04T07:52:40.502Z,5856
2016-07-04T07:53:40.519Z,5748
2016-07-04T07:54:40.549Z,5632
2016-07-04T07:55:40.563Z,5560
2016-07-04T07:56:40.586Z,6344
2016-07-04T07:57:41.276Z,8144
2016-07-04T07:58:40.928Z,7936
2016-07-04T07:59:40.655Z,6856
2016-07-04T08:00:40.686Z,7596
2016-07-04T08:01:40.696Z,7464
2016-07-04T08:02:40.720Z,7348
2016-07-04T08:03:40.732Z,7488
2016-07-04T08:04:40.769Z,7296
2016-07-04T08:05:40.781Z,7260
2016-07-04T08:06:40.822Z,7192
2016-07-04T08:07:40.886Z,7140
2016-07-04T08:08:40.986Z,7108
2016-07-04T08:09:40.870Z,7092
2016-07-04T08:10:40.899Z,6984
2016-07-04T08:11:40.921Z,6944
2016-07-04T08:12:41.533Z,6920
2016-07-04T08:13:41.158Z,6876
2016-07-04T08:14:40.987Z,6848
2016-07-04T08:15:41.009Z,6840
2016-07-04T08:16:41.036Z,6920
2016-07-04T08:17:41.150Z,6948
2016-07-04T08:18:41.088Z,7000
2016-07-04T08:19:41.741Z,7032
2016-07-04T08:20:41.107Z,7028
2016-07-04T08:21:41.138Z,7024
2016-07-04T08:22:41.169Z,7064
2016-07-04T08:23:41.801Z,7084
2016-07-04T08:24:41.268Z,7088
2016-07-04T08:25:41.214Z,7304
2016-07-04T08:26:42.032Z,7424
2016-07-04T08:27:45.570Z,7556
2016-07-04T08:28:41.293Z,7624
2016-07-04T08:29:41.302Z,7684
2016-07-04T08:30:41.325Z,7812
2016-07-04T08:31:41.339Z,7932
2016-07-04T08:32:41.376Z,8156
2016-07-04T08:33:41.416Z,8360
2016-07-04T08:34:41.416Z,8484
2016-07-04T08:35:41.439Z,8472
2016-07-04T08:36:41.465Z,8480
2016-07-04T08:37:41.479Z,5852
2016-07-04T08:38:41.512Z,6072
2016-07-04T08:39:41.541Z,5920
2016-07-04T08:40:41.558Z,5756
2016-07-04T08:41:41.563Z,5588
2016-07-04T08:42:41.581Z,5372
2016-07-04T08:43:41.608Z,5248
2016-07-04T08:44:41.643Z,5332
2016-07-04T08:46:50.631Z,6356
2016-07-04T08:47:41.715Z,9224
2016-07-04T08:48:41.801Z,9520
2016-07-04T08:49:41.753Z,7932
2016-07-04T08:51:02.648Z,6596
2016-07-04T08:52:14.186Z,6404
2016-07-04T08:52:55.502Z,6240
2016-07-04T08:54:13.836Z,6164
2016-07-04T08:54:44.951Z,6252
2016-07-04T08:55:41.883Z,6332
2016-07-04T08:57:12.756Z,6408
2016-07-04T08:57:41.916Z,6456
2016-07-04T08:58:42.581Z,6588
2016-07-04T08:59:42.104Z,6784
2016-07-04T09:25:59.984Z,8936
2016-07-04T09:27:00.004Z,10268
2016-07-04T09:28:00.037Z,10336
2016-07-04T09:29:00.052Z,10292
2016-07-04T09:30:00.079Z,7124
2016-07-04T09:31:00.090Z,8592
2016-07-04T09:32:00.154Z,9900
2016-07-04T09:33:00.152Z,9544
2016-07-04T09:34:00.186Z,9368
2016-07-04T09:35:00.185Z,9240
2016-07-04T09:36:00.248Z,9284
2016-07-04T09:37:00.246Z,6748
2016-07-04T09:38:00.251Z,7752
2016-07-04T09:39:00.272Z,7300
2016-07-04T09:40:00.288Z,7000
2016-07-04T09:41:00.308Z,7092
2016-07-04T09:42:00.348Z,10124
2016-07-04T09:43:00.343Z,9948
2016-07-04T09:44:00.387Z,7592
2016-07-04T09:45:00.400Z,9556
2016-07-04T09:46:00.419Z,7796
2016-07-04T09:47:00.446Z,7372
2016-07-04T09:48:00.464Z,7540
2016-07-04T09:49:00.480Z,7492
2016-07-04T09:50:00.520Z,7480
2016-07-04T09:51:00.562Z,9108
2016-07-04T09:52:00.588Z,8008
2016-07-04T09:53:00.598Z,7620
2016-07-04T09:54:00.652Z,8608
2016-07-04T09:55:00.639Z,7832
2016-07-04T09:56:00.701Z,10668
2016-07-04T09:57:00.696Z,11184
2016-07-04T09:58:00.707Z,10844
2016-07-04T09:59:00.742Z,8496
2016-07-04T10:00:00.759Z,7628
2016-07-04T10:01:00.785Z,10428
2016-07-04T10:02:00.832Z,10888
2016-07-04T10:03:00.835Z,10944
2016-07-04T10:04:00.843Z,11020
2016-07-04T10:05:00.873Z,11056
2016-07-04T10:06:00.889Z,11216
2016-07-04T10:07:00.932Z,11580
2016-07-04T10:08:00.940Z,11628
2016-07-04T10:09:00.964Z,11320
2016-07-04T10:10:00.991Z,8704
2016-07-04T10:11:01.027Z,8792
2016-07-04T10:12:01.044Z,8468
2016-07-04T10:13:01.092Z,8056
2016-07-04T10:14:01.082Z,8212
2016-07-04T10:15:01.101Z,10880
2016-07-04T10:16:01.133Z,10160
2016-07-04T10:17:01.157Z,9272
2016-07-04T10:18:01.151Z,11500
2016-07-04T10:19:01.191Z,11624
2016-07-04T10:20:01.218Z,11544
2016-07-04T10:21:01.235Z,11316
2016-07-04T10:22:01.262Z,11296
2016-07-04T10:23:01.289Z,8712
2016-07-04T10:24:01.310Z,11644
2016-07-04T10:25:01.345Z,11812
2016-07-04T10:26:01.361Z,11680
2016-07-04T10:27:01.386Z,11500
2016-07-04T10:28:01.397Z,11228
2016-07-04T10:29:01.444Z,11240
2016-07-04T10:30:01.454Z,8144
2016-07-04T10:31:01.474Z,7588
2016-07-04T10:32:01.510Z,7696
2016-07-04T10:33:01.534Z,7816
2016-07-04T10:34:01.567Z,7732
2016-07-04T10:35:01.570Z,7604
2016-07-04T10:36:01.607Z,7512
2016-07-04T10:37:01.633Z,7424
2016-07-04T10:38:01.641Z,7400
2016-07-04T10:39:01.677Z,7420
2016-07-04T10:40:01.694Z,7332
2016-07-04T10:41:02.348Z,7252
2016-07-04T10:42:01.746Z,7256
2016-07-04T10:43:01.764Z,7316
2016-07-04T10:44:01.782Z,7420
2016-07-04T10:45:01.824Z,7976
2016-07-04T10:46:01.837Z,7604
2016-07-04T10:47:01.862Z,7612
2016-07-04T10:48:01.888Z,7664
2016-07-04T10:49:01.914Z,7940
2016-07-04T10:50:01.930Z,8124
2016-07-04T10:51:01.977Z,8188
2016-07-04T10:52:01.979Z,8328
2016-07-04T10:53:02.005Z,8676
2016-07-04T10:54:02.039Z,11788
2016-07-04T10:55:02.054Z,11064
2016-07-04T10:56:02.063Z,11728
2016-07-04T10:57:02.093Z,11728
2016-07-04T10:58:02.116Z,11692
2016-07-04T10:59:02.158Z,11624
2016-07-04T11:00:02.168Z,11544
2016-07-04T11:01:02.178Z,11396
2016-07-04T11:02:02.199Z,9124
2016-07-04T11:03:02.233Z,11708
2016-07-04T11:04:02.262Z,11672
2016-07-04T11:05:02.277Z,11704
2016-07-04T11:06:02.309Z,10736
2016-07-04T11:07:02.319Z,11440
2016-07-04T11:08:02.331Z,9780
2016-07-04T11:09:02.372Z,9932
2016-07-04T11:10:02.386Z,10756
2016-07-04T11:11:02.421Z,10864
2016-07-04T11:12:02.442Z,10892
2016-07-04T11:13:02.469Z,11340
2016-07-04T11:14:02.499Z,12624
2016-07-04T11:15:02.522Z,10488
2016-07-04T11:16:02.537Z,10376
2016-07-04T11:17:02.574Z,10220
2016-07-04T11:18:02.585Z,10068
2016-07-04T11:19:02.649Z,10120
2016-07-04T11:20:02.636Z,11812
2016-07-04T11:21:02.657Z,12232
2016-07-04T11:22:02.696Z,11184
2016-07-04T11:23:02.753Z,12740
2016-07-04T11:24:02.766Z,12328
2016-07-04T11:25:02.749Z,11508
2016-07-04T11:26:02.794Z,10084
2016-07-04T11:27:02.792Z,8660
2016-07-04T11:28:02.824Z,11612
2016-07-04T11:29:02.867Z,11256
2016-07-04T11:30:02.884Z,11464
2016-07-04T11:31:02.911Z,10988
2016-07-04T11:32:02.928Z,10880
2016-07-04T11:33:02.960Z,10540
2016-07-04T11:34:02.956Z,10464
2016-07-04T11:35:03.003Z,10380
2016-07-04T11:36:03.035Z,10372
2016-07-04T11:37:03.060Z,10412
2016-07-04T11:38:03.070Z,10376
2016-07-04T11:39:03.098Z,10404
2016-07-04T11:40:03.120Z,10512
2016-07-04T11:41:03.148Z,10764
2016-07-04T11:42:03.176Z,11028
2016-07-04T11:43:03.199Z,11172
2016-07-04T11:44:03.228Z,11280
2016-07-04T11:45:03.217Z,11556
2016-07-04T11:46:03.273Z,11804
2016-07-04T11:47:03.305Z,12080
2016-07-04T11:48:03.320Z,12324
2016-07-04T11:49:03.333Z,12524
2016-07-04T11:50:03.373Z,12772
2016-07-04T11:51:03.377Z,13084
2016-07-04T11:52:03.407Z,13220
2016-07-04T11:53:03.441Z,13264
2016-07-04T11:54:03.466Z,13564
2016-07-04T11:55:03.484Z,13868
2016-07-04T11:56:03.516Z,13992
2016-07-04T11:57:03.543Z,13984
2016-07-04T11:58:03.564Z,12404
2016-07-04T11:59:03.587Z,14192
2016-07-04T12:00:03.599Z,10500
2016-07-04T12:01:03.635Z,12264
2016-07-04T12:02:03.666Z,13180
2016-07-04T12:03:03.694Z,13192
2016-07-04T12:04:03.723Z,13132
2016-07-04T12:05:03.741Z,11400
2016-07-04T12:06:03.755Z,14736
2016-07-04T12:07:03.788Z,13224
2016-07-04T12:08:03.823Z,11324
2016-07-04T12:09:03.840Z,14824
2016-07-04T12:10:03.869Z,10816
2016-07-04T12:11:03.890Z,13956
2016-07-04T12:12:03.922Z,14184
2016-07-04T12:13:03.932Z,14256
2016-07-04T12:14:03.961Z,14168
2016-07-04T12:15:03.996Z,14100
2016-07-04T12:16:04.025Z,14236
2016-07-04T12:17:04.055Z,14460
2016-07-04T12:18:04.069Z,10588
2016-07-04T12:19:04.087Z,10360
2016-07-04T12:20:04.105Z,10148
2016-07-04T12:21:04.144Z,9868
2016-07-04T12:22:04.175Z,9628
2016-07-04T12:23:04.199Z,9476
2016-07-04T12:24:04.224Z,9320
2016-07-04T12:25:04.256Z,9308
2016-07-04T12:26:04.278Z,9388
2016-07-04T12:27:04.304Z,10796
2016-07-04T12:28:04.328Z,13616
2016-07-04T12:29:04.350Z,13936
2016-07-04T12:30:04.385Z,13520
2016-07-04T12:31:04.401Z,13084
2016-07-04T12:32:04.430Z,11572
2016-07-04T12:33:04.452Z,13576
2016-07-04T12:34:04.480Z,11092
2016-07-04T12:35:04.498Z,8568
2016-07-04T12:36:04.527Z,11168
2016-07-04T12:37:04.547Z,9180
2016-07-04T12:38:04.584Z,12092
2016-07-04T12:39:04.589Z,6988
2016-07-04T12:40:04.627Z,6604
2016-07-04T12:41:04.649Z,6416
2016-07-04T12:42:04.681Z,6436
2016-07-04T12:43:04.695Z,6456
2016-07-04T12:44:04.733Z,6428
2016-07-04T12:45:04.751Z,6608
2016-07-04T12:46:04.774Z,7084
2016-07-04T12:47:04.802Z,11660
2016-07-04T12:48:04.825Z,12004
2016-07-04T12:49:04.846Z,11232
2016-07-04T12:50:04.870Z,12068
2016-07-04T12:51:04.903Z,12084
2016-07-04T12:52:04.920Z,12152
2016-07-04T12:53:04.939Z,12168
2016-07-04T12:54:04.981Z,12172
2016-07-04T12:55:04.992Z,8812
2016-07-04T12:56:05.015Z,7452
2016-07-04T12:57:05.040Z,9892
2016-07-04T12:58:05.074Z,9388
2016-07-04T12:59:05.094Z,7604
2016-07-04T13:00:05.118Z,7940
2016-07-04T13:01:05.145Z,9320
2016-07-04T13:02:05.170Z,11440
2016-07-04T13:03:05.206Z,13720
2016-07-04T13:04:05.204Z,9788
2016-07-04T13:05:05.229Z,9596
2016-07-04T13:06:05.256Z,14244
2016-07-04T13:07:05.303Z,13436
2016-07-04T13:08:05.313Z,11356
2016-07-04T13:09:05.336Z,12168
2016-07-04T13:10:05.355Z,11872
2016-07-04T13:11:05.377Z,10604
2016-07-04T13:12:05.421Z,10428
2016-07-04T13:13:05.427Z,9976
2016-07-04T13:14:05.460Z,9576
2016-07-04T13:15:05.487Z,9272
2016-07-04T13:16:05.558Z,9044
2016-07-04T13:17:05.556Z,9120
2016-07-04T13:18:05.590Z,9380
2016-07-04T13:19:05.624Z,9356
2016-07-04T13:20:05.652Z,9364
2016-07-04T13:21:05.655Z,9584
2016-07-04T13:22:05.654Z,9636
2016-07-04T13:23:05.677Z,9568
2016-07-04T13:24:05.696Z,9664
2016-07-04T13:25:05.726Z,9704
2016-07-04T13:26:05.751Z,9756
2016-07-04T13:27:05.781Z,9764
2016-07-04T13:28:05.813Z,9608
2016-07-04T13:29:05.827Z,9332
2016-07-04T13:30:05.842Z,9052
2016-07-04T13:31:05.878Z,8848
2016-07-04T13:32:05.906Z,8872
2016-07-04T13:33:05.917Z,9084
2016-07-04T13:34:05.939Z,8860
2016-07-04T13:35:05.973Z,8872
2016-07-04T13:36:05.998Z,9056
2016-07-04T13:37:06.032Z,9140
2016-07-04T13:38:06.665Z,9324
2016-07-04T13:39:06.091Z,9204
2016-07-04T13:40:06.104Z,8800
2016-07-04T13:41:06.111Z,12108
2016-07-04T13:42:06.159Z,10480
2016-07-04T13:43:06.164Z,9168
2016-07-04T13:44:06.206Z,9620
2016-07-04T13:45:06.215Z,10984
2016-07-04T13:46:06.233Z,10296
2016-07-04T13:47:06.262Z,13336
2016-07-04T13:48:06.309Z,13976
2016-07-04T13:49:06.319Z,11352
2016-07-04T13:50:06.356Z,11596
2016-07-04T13:51:06.374Z,11348
2016-07-04T13:52:06.390Z,10976
2016-07-04T13:53:06.433Z,11240
2016-07-04T13:54:06.429Z,11632
2016-07-04T13:55:06.470Z,16768
2016-07-04T13:56:06.502Z,16384
2016-07-04T13:57:06.518Z,10724
2016-07-04T13:58:06.537Z,10532
2016-07-04T13:59:06.554Z,10488